createdAt,value
2022-10-04T00:00:13.191Z,7.70
2022-10-04T00:03:25.484Z,7.65
2022-10-04T00:05:58.585Z,7.61
2022-10-04T00:08:53.602Z,7.59
2022-10-04T00:11:35.462Z,7.58
2022-10-04T00:14:21.245Z,7.58
2022-10-04T00:16:49.417Z,7.60
2022-10-04T00:19:20.342Z,7.63
2022-10-04T00:21:54.950Z,7.67
2022-10-04T00:24:31.812Z,7.73
2022-10-04T00:27:20.330Z,7.81
2022-10-04T00:30:03.710Z,7.89
2022-10-04T00:32:47.688Z,7.94
2022-10-04T00:35:27.903Z,7.99
2022-10-04T00:38:00.347Z,8.03
2022-10-04T00:40:33.957Z,8.05
2022-10-04T00:43:10.869Z,8.04
2022-10-04T00:45:47.112Z,7.99
2022-10-04T00:48:22.914Z,7.93
2022-10-04T00:51:26.352Z,7.89
2022-10-04T00:54:07.610Z,7.86
2022-10-04T00:56:41.704Z,7.86
2022-10-04T00:59:15.473Z,7.87
2022-10-04T01:01:48.055Z,7.88
2022-10-04T01:04:28.960Z,7.90
2022-10-04T01:07:00.932Z,7.94
2022-10-04T01:09:34.886Z,7.97
2022-10-04T01:12:10.234Z,7.98
2022-10-04T01:14:51.063Z,7.99
2022-10-04T01:17:20.221Z,8.00
2022-10-04T01:19:53.879Z,8.04
2022-10-04T01:22:44.840Z,8.08
2022-10-04T01:25:51.124Z,8.11
2022-10-04T01:28:19.379Z,8.15
2022-10-04T01:30:47.766Z,8.18
2022-10-04T01:33:15.724Z,8.22
2022-10-04T01:35:44.901Z,8.24
2022-10-04T01:38:13.030Z,8.26
2022-10-04T01:40:53.949Z,8.26
2022-10-04T01:43:31.400Z,8.25
2022-10-04T01:46:36.414Z,8.24
2022-10-04T01:49:11.313Z,8.26
2022-10-04T01:51:56.837Z,8.29
2022-10-04T01:54:45.700Z,8.34
2022-10-04T01:57:25.113Z,8.36
2022-10-04T02:00:02.047Z,8.37
2022-10-04T02:02:44.510Z,8.36
2022-10-04T02:05:18.350Z,8.36
2022-10-04T02:07:48.604Z,8.36
2022-10-04T02:10:20.496Z,8.38
2022-10-04T02:12:51.002Z,8.38
2022-10-04T02:15:21.901Z,8.38
2022-10-04T02:17:50.715Z,8.38
2022-10-04T02:20:22.176Z,8.42
2022-10-04T02:22:56.552Z,8.48
2022-10-04T02:25:26.925Z,8.53
2022-10-04T02:27:56.983Z,8.55
2022-10-04T02:30:25.689Z,8.57
2022-10-04T02:32:58.550Z,8.55
2022-10-04T02:35:31.714Z,8.51
2022-10-04T02:38:26.240Z,8.44
2022-10-04T02:41:12.659Z,8.36
2022-10-04T02:43:52.005Z,8.28
2022-10-04T02:46:40.600Z,8.22
2022-10-04T02:49:32.656Z,8.16
2022-10-04T02:52:03.938Z,8.10
2022-10-04T02:54:54.940Z,8.05
2022-10-04T02:57:24.732Z,8.01
2022-10-04T03:00:04.515Z,7.99
2022-10-04T03:02:32.662Z,7.97
2022-10-04T03:05:07.816Z,7.96
2022-10-04T03:07:37.288Z,7.94
2022-10-04T03:10:12.867Z,7.91
2022-10-04T03:12:41.469Z,7.89
2022-10-04T03:15:13.290Z,7.85
2022-10-04T03:17:44.067Z,7.82
2022-10-04T03:20:16.398Z,7.78
2022-10-04T03:22:47.127Z,7.76
2022-10-04T03:25:21.617Z,7.77
2022-10-04T03:27:52.016Z,7.80
2022-10-04T03:30:20.902Z,7.84
2022-10-04T03:32:50.622Z,7.88
2022-10-04T03:35:40.608Z,7.90
2022-10-04T03:38:12.545Z,7.93
2022-10-04T03:40:50.079Z,7.93
2022-10-04T03:43:18.749Z,7.93
2022-10-04T03:45:47.291Z,7.92
2022-10-04T03:48:29.852Z,7.88
2022-10-04T03:50:59.444Z,7.84
2022-10-04T03:53:35.544Z,7.80
2022-10-04T03:56:12.141Z,7.77
2022-10-04T03:58:40.518Z,7.74
2022-10-04T04:01:24.127Z,7.72
2022-10-04T04:04:11.204Z,7.71
2022-10-04T04:06:51.986Z,7.71
2022-10-04T04:09:25.808Z,7.71
2022-10-04T04:11:56.586Z,7.70
2022-10-04T04:14:27.868Z,7.68
2022-10-04T04:17:18.269Z,7.64
2022-10-04T04:19:47.103Z,7.61
2022-10-04T04:22:17.532Z,7.57
2022-10-04T04:24:47.034Z,7.53
2022-10-04T04:27:18.188Z,7.47
2022-10-04T04:29:52.989Z,7.40
2022-10-04T04:32:31.868Z,7.34
2022-10-04T04:35:08.975Z,7.28
2022-10-04T04:37:39.026Z,7.21
2022-10-04T04:40:25.246Z,7.18
2022-10-04T04:42:53.696Z,7.16
2022-10-04T04:45:30.273Z,7.19
2022-10-04T04:48:01.354Z,7.19
2022-10-04T04:50:36.752Z,7.21
2022-10-04T04:53:18.255Z,7.26
2022-10-04T04:56:04.689Z,7.31
2022-10-04T04:58:43.639Z,7.39
2022-10-04T05:01:37.798Z,7.48
2022-10-04T05:04:21.568Z,7.58
2022-10-04T05:07:04.689Z,7.69
2022-10-04T05:09:35.912Z,7.77
2022-10-04T05:12:24.230Z,7.84
2022-10-04T05:14:54.814Z,7.95
2022-10-04T05:17:33.574Z,8.11
2022-10-04T05:20:03.843Z,8.34
2022-10-04T05:22:33.139Z,8.63
2022-10-04T05:25:10.872Z,8.99
2022-10-04T05:27:42.898Z,9.46
2022-10-04T05:30:36.649Z,9.82
2022-10-04T05:33:11.182Z,10.29
2022-10-04T05:35:46.520Z,10.51
2022-10-04T05:38:24.419Z,10.84
2022-10-04T05:41:06.939Z,10.89
2022-10-04T05:43:34.814Z,10.60
2022-10-04T05:46:31.396Z,10.52
2022-10-04T05:49:06.420Z,10.38
2022-10-04T05:51:37.790Z,10.42
2022-10-04T05:54:09.484Z,10.63
2022-10-04T05:57:05.336Z,10.99
2022-10-04T06:00:04.450Z,11.47
2022-10-04T06:02:56.038Z,11.69
2022-10-04T06:05:42.732Z,11.88
2022-10-04T06:08:32.570Z,12.08
2022-10-04T06:11:03.543Z,12.16
2022-10-04T06:14:00.250Z,12.00
2022-10-04T06:17:03.727Z,11.95
2022-10-04T06:19:41.555Z,11.93
2022-10-04T06:22:09.871Z,11.95
2022-10-04T06:24:42.417Z,11.98
2022-10-04T06:27:15.513Z,11.95
2022-10-04T06:29:57.474Z,11.89
2022-10-04T06:32:33.166Z,12.01
2022-10-04T06:35:16.127Z,12.20
2022-10-04T06:37:56.347Z,12.67
2022-10-04T06:40:40.079Z,13.30
2022-10-04T06:43:22.987Z,13.98
2022-10-04T06:45:57.275Z,14.62
2022-10-04T06:48:44.571Z,15.18
2022-10-04T06:51:27.614Z,15.70
2022-10-04T06:54:25.130Z,15.91
2022-10-04T06:57:10.111Z,15.44
2022-10-04T06:59:57.041Z,15.15
2022-10-04T07:02:46.778Z,15.33
2022-10-04T07:05:51.198Z,15.14
2022-10-04T07:08:51.178Z,14.93
2022-10-04T07:11:32.948Z,14.42
2022-10-04T07:14:12.651Z,13.96
2022-10-04T07:16:48.075Z,13.97
2022-10-04T07:19:19.516Z,13.74
2022-10-04T07:21:57.653Z,13.36
2022-10-04T07:24:39.050Z,13.05
2022-10-04T07:27:13.753Z,12.89
2022-10-04T07:29:46.730Z,12.99
2022-10-04T07:32:24.086Z,13.02
2022-10-04T07:35:04.637Z,13.11
2022-10-04T07:37:46.507Z,12.97
2022-10-04T07:40:38.829Z,12.44
2022-10-04T07:43:14.833Z,12.37
2022-10-04T07:45:43.245Z,12.49
2022-10-04T07:48:16.303Z,12.50
2022-10-04T07:50:57.052Z,12.57
2022-10-04T07:53:43.173Z,12.67
2022-10-04T07:56:17.817Z,12.81
2022-10-04T07:59:28.332Z,12.78
2022-10-04T08:02:07.794Z,12.69
2022-10-04T08:04:45.732Z,12.49
2022-10-04T08:07:31.913Z,12.57
2022-10-04T08:10:07.718Z,12.77
2022-10-04T08:13:00.202Z,12.80
2022-10-04T08:15:39.554Z,12.92
2022-10-04T08:18:57.435Z,13.03
2022-10-04T08:21:40.461Z,13.18
2022-10-04T08:24:53.473Z,12.80
2022-10-04T08:28:09.766Z,12.78
2022-10-04T08:30:49.548Z,12.92
2022-10-04T08:33:43.066Z,13.03
2022-10-04T08:36:29.801Z,13.19
2022-10-04T08:39:00.510Z,12.84
2022-10-04T08:41:47.382Z,12.70
2022-10-04T08:44:53.006Z,12.75
2022-10-04T08:48:08.469Z,12.54
2022-10-04T08:51:07.995Z,12.55
2022-10-04T08:53:42.423Z,12.84
2022-10-04T08:56:35.535Z,12.88
2022-10-04T08:59:28.403Z,12.97
2022-10-04T09:02:15.891Z,13.05
2022-10-04T09:05:25.363Z,13.16
2022-10-04T09:08:18.946Z,13.06
2022-10-04T09:11:05.962Z,13.28
2022-10-04T09:13:44.517Z,13.51
2022-10-04T09:16:20.096Z,13.72
2022-10-04T09:18:53.555Z,13.83
2022-10-04T09:22:01.691Z,13.94
2022-10-04T09:24:48.684Z,14.01
2022-10-04T09:27:49.955Z,14.11
2022-10-04T09:30:21.762Z,14.12
2022-10-04T09:33:00.251Z,14.19
2022-10-04T09:35:48.861Z,14.34
2022-10-04T09:38:36.112Z,14.51
2022-10-04T09:41:34.939Z,14.50
2022-10-04T09:44:46.676Z,14.61
2022-10-04T09:47:31.500Z,14.26
2022-10-04T09:50:14.767Z,14.13
2022-10-04T09:53:28.907Z,14.06
2022-10-04T09:56:31.067Z,14.04
2022-10-04T09:59:27.812Z,14.07
2022-10-04T10:02:17.041Z,14.11
2022-10-04T10:05:17.451Z,14.00
2022-10-04T10:08:23.868Z,13.97
2022-10-04T10:11:34.506Z,14.19
2022-10-04T10:14:41.137Z,14.40
2022-10-04T10:17:25.798Z,14.48
2022-10-04T10:20:27.240Z,14.44
2022-10-04T10:23:23.534Z,14.28
2022-10-04T10:26:29.261Z,13.75
2022-10-04T10:29:48.536Z,12.75
2022-10-04T10:32:37.867Z,12.08
2022-10-04T10:35:23.545Z,11.86
2022-10-04T10:38:24.627Z,11.66
2022-10-04T10:41:21.927Z,11.40
2022-10-04T10:44:13.300Z,11.33
2022-10-04T10:47:00.098Z,11.36
2022-10-04T10:49:58.968Z,11.40
2022-10-04T10:52:43.679Z,11.52
2022-10-04T10:55:25.622Z,11.67
2022-10-04T10:58:16.129Z,11.85
2022-10-04T11:00:54.079Z,12.00
2022-10-04T11:03:32.524Z,12.18
2022-10-04T11:06:04.135Z,12.38
2022-10-04T11:09:00.261Z,12.61
2022-10-04T11:12:05.922Z,12.84
2022-10-04T11:14:59.741Z,12.98
2022-10-04T11:17:47.024Z,12.87
2022-10-04T11:20:52.578Z,12.80
2022-10-04T11:23:52.316Z,12.86
2022-10-04T11:26:42.489Z,12.84
2022-10-04T11:29:48.666Z,12.85
2022-10-04T11:32:30.653Z,12.87
2022-10-04T11:35:30.329Z,12.79
2022-10-04T11:38:16.278Z,12.86
2022-10-04T11:40:44.346Z,12.97
2022-10-04T11:44:00.579Z,12.98
2022-10-04T11:46:48.882Z,13.08
2022-10-04T11:49:26.561Z,13.20
2022-10-04T11:52:02.512Z,13.24
2022-10-04T11:55:10.037Z,13.25
2022-10-04T11:57:59.124Z,13.31
2022-10-04T12:00:50.226Z,13.29
2022-10-04T12:04:04.173Z,13.29
2022-10-04T12:06:48.268Z,13.32
2022-10-04T12:09:37.194Z,13.18
2022-10-04T12:12:44.138Z,13.10
2022-10-04T12:15:40.605Z,13.01
2022-10-04T12:18:14.893Z,12.93
2022-10-04T12:20:53.446Z,12.83
2022-10-04T12:23:58.842Z,12.77
2022-10-04T12:26:33.125Z,12.76
2022-10-04T12:29:34.278Z,12.75
2022-10-04T12:32:15.328Z,12.72
2022-10-04T12:35:09.147Z,12.73
2022-10-04T12:38:08.145Z,12.69
2022-10-04T12:41:14.146Z,12.67
2022-10-04T12:43:51.656Z,12.68
2022-10-04T12:47:03.651Z,12.76
2022-10-04T12:50:00.712Z,12.90
2022-10-04T12:52:40.262Z,12.98
2022-10-04T12:55:34.883Z,13.06
2022-10-04T12:58:18.116Z,13.06
2022-10-04T13:00:49.324Z,12.98
2022-10-04T13:03:22.570Z,13.03
2022-10-04T13:06:29.064Z,12.99
2022-10-04T13:09:00.368Z,13.01
2022-10-04T13:11:51.526Z,13.02
2022-10-04T13:14:53.633Z,12.99
2022-10-04T13:17:50.919Z,12.70
2022-10-04T13:20:43.789Z,12.63
2022-10-04T13:23:34.715Z,12.60
2022-10-04T13:26:11.674Z,12.72
2022-10-04T13:28:46.594Z,12.73
2022-10-04T13:31:24.959Z,12.77
2022-10-04T13:34:03.731Z,12.71
2022-10-04T13:36:43.470Z,12.69
2022-10-04T13:39:44.534Z,12.53
2022-10-04T13:42:35.798Z,12.57
2022-10-04T13:45:24.475Z,12.64
2022-10-04T13:48:13.144Z,12.74
2022-10-04T13:50:48.924Z,12.63
2022-10-04T13:53:57.739Z,12.54
2022-10-04T13:56:39.286Z,12.47
2022-10-04T13:59:36.913Z,12.45
2022-10-04T14:02:47.950Z,12.48
2022-10-04T14:05:48.330Z,12.57
2022-10-04T14:08:38.116Z,12.62
2022-10-04T14:11:27.919Z,12.68
2022-10-04T14:14:04.835Z,12.72
2022-10-04T14:16:57.540Z,12.79
2022-10-04T14:19:46.704Z,12.85
2022-10-04T14:22:45.635Z,12.84
2022-10-04T14:25:27.313Z,12.83
2022-10-04T14:28:27.202Z,12.84
2022-10-04T14:31:08.293Z,12.80
2022-10-04T14:33:45.785Z,12.76
2022-10-04T14:36:55.521Z,12.69
2022-10-04T14:39:42.841Z,12.64
2022-10-04T14:42:32.430Z,12.61
2022-10-04T14:45:08.103Z,12.61
2022-10-04T14:48:02.049Z,12.59
2022-10-04T14:50:50.313Z,12.53
2022-10-04T14:53:56.119Z,12.49
2022-10-04T14:56:50.728Z,12.37
2022-10-04T14:59:57.400Z,12.25
2022-10-04T15:02:31.778Z,12.19
2022-10-04T15:05:27.157Z,12.10
2022-10-04T15:08:18.874Z,12.06
2022-10-04T15:10:58.586Z,11.99
2022-10-04T15:13:32.299Z,11.93
2022-10-04T15:16:28.252Z,11.86
2022-10-04T15:19:04.329Z,11.85
2022-10-04T15:21:42.333Z,11.83
2022-10-04T15:24:16.362Z,11.80
2022-10-04T15:26:56.644Z,11.78
2022-10-04T15:29:32.570Z,11.76
2022-10-04T15:32:25.172Z,11.72
2022-10-04T15:34:56.005Z,11.65
2022-10-04T15:37:56.670Z,11.59
2022-10-04T15:40:24.665Z,11.51
2022-10-04T15:42:59.932Z,11.43
2022-10-04T15:45:49.983Z,11.32
2022-10-04T15:48:20.932Z,11.20
2022-10-04T15:51:12.091Z,11.12
2022-10-04T15:53:51.706Z,11.02
2022-10-04T15:56:29.799Z,10.91
2022-10-04T15:59:23.987Z,10.79
2022-10-04T16:01:59.143Z,10.68
2022-10-04T16:04:36.240Z,10.58
2022-10-04T16:07:06.807Z,10.50
2022-10-04T16:10:07.229Z,10.43
2022-10-04T16:12:48.564Z,10.35
2022-10-04T16:15:30.718Z,10.31
2022-10-04T16:18:31.999Z,10.26
2022-10-04T16:21:41.358Z,10.21
2022-10-04T16:24:18.194Z,10.16
2022-10-04T16:26:47.674Z,10.12
2022-10-04T16:29:40.883Z,10.08
2022-10-04T16:32:27.436Z,10.03
2022-10-04T16:35:27.013Z,9.98
2022-10-04T16:38:01.055Z,9.94
2022-10-04T16:40:38.671Z,9.89
2022-10-04T16:43:23.513Z,9.85
2022-10-04T16:46:07.133Z,9.79
2022-10-04T16:48:38.566Z,9.72
2022-10-04T16:51:18.504Z,9.67
2022-10-04T16:53:49.405Z,9.62
2022-10-04T16:56:26.889Z,9.60
2022-10-04T16:59:11.042Z,9.59
2022-10-04T17:01:44.806Z,9.59
2022-10-04T17:04:15.873Z,9.59
2022-10-04T17:07:14.096Z,9.58
2022-10-04T17:10:21.199Z,9.55
2022-10-04T17:12:56.560Z,9.47
2022-10-04T17:15:59.534Z,9.39
2022-10-04T17:18:35.246Z,9.29
2022-10-04T17:21:13.652Z,9.21
2022-10-04T17:24:10.402Z,9.13
2022-10-04T17:26:48.298Z,9.03
2022-10-04T17:29:24.315Z,8.94
2022-10-04T17:32:08.037Z,8.87
2022-10-04T17:35:04.205Z,8.83
2022-10-04T17:37:50.724Z,8.78
2022-10-04T17:40:43.094Z,8.74
2022-10-04T17:43:15.594Z,8.73
2022-10-04T17:46:12.346Z,8.71
2022-10-04T17:49:11.386Z,8.70
2022-10-04T17:51:59.720Z,8.69
2022-10-04T17:54:53.542Z,8.70
2022-10-04T17:57:47.315Z,8.69
2022-10-04T18:00:18.376Z,8.67
2022-10-04T18:03:01.801Z,8.64
2022-10-04T18:05:46.890Z,8.61
2022-10-04T18:08:29.511Z,8.59
2022-10-04T18:11:03.692Z,8.56
2022-10-04T18:14:04.556Z,8.57
2022-10-04T18:16:44.742Z,8.58
2022-10-04T18:19:50.325Z,8.62
2022-10-04T18:22:20.648Z,8.66
2022-10-04T18:25:10.157Z,8.70
2022-10-04T18:28:06.655Z,8.75
2022-10-04T18:30:54.079Z,8.79
2022-10-04T18:33:26.728Z,8.82
2022-10-04T18:36:05.393Z,8.85
2022-10-04T18:38:36.394Z,8.86
2022-10-04T18:41:19.078Z,8.86
2022-10-04T18:43:59.530Z,8.88
2022-10-04T18:46:38.276Z,8.86
2022-10-04T18:49:21.123Z,8.85
2022-10-04T18:51:51.880Z,8.83
2022-10-04T18:54:46.801Z,8.82
2022-10-04T18:58:00.118Z,8.79
2022-10-04T19:01:01.024Z,8.73
2022-10-04T19:03:56.730Z,8.71
2022-10-04T19:06:30.945Z,8.67
2022-10-04T19:09:30.788Z,8.62
2022-10-04T19:12:10.064Z,8.55
2022-10-04T19:14:53.860Z,8.47
2022-10-04T19:17:27.743Z,8.39
2022-10-04T19:20:20.114Z,8.30
2022-10-04T19:23:15.703Z,8.20
2022-10-04T19:26:09.902Z,8.09
2022-10-04T19:28:37.819Z,8.01
2022-10-04T19:31:11.625Z,7.97
2022-10-04T19:33:54.588Z,7.92
2022-10-04T19:36:42.571Z,7.88
2022-10-04T19:39:42.181Z,7.84
2022-10-04T19:42:14.848Z,7.81
2022-10-04T19:45:00.602Z,7.78
2022-10-04T19:47:33.819Z,7.74
2022-10-04T19:50:22.232Z,7.70
2022-10-04T19:52:55.769Z,7.65
2022-10-04T19:55:44.002Z,7.59
2022-10-04T19:58:37.231Z,7.53
2022-10-04T20:01:12.577Z,7.47
2022-10-04T20:03:40.545Z,7.40
2022-10-04T20:06:09.513Z,7.33
2022-10-04T20:09:01.567Z,7.29
2022-10-04T20:11:48.872Z,7.25
2022-10-04T20:14:17.066Z,7.22
2022-10-04T20:16:49.137Z,7.20
2022-10-04T20:19:29.629Z,7.18
2022-10-04T20:22:30.024Z,7.18
2022-10-04T20:24:59.419Z,7.18
2022-10-04T20:27:28.035Z,7.17
2022-10-04T20:30:01.689Z,7.15
2022-10-04T20:32:38.466Z,7.12
2022-10-04T20:35:49.396Z,7.09
2022-10-04T20:38:32.309Z,7.02
2022-10-04T20:41:01.548Z,6.96
2022-10-04T20:43:29.443Z,6.92
2022-10-04T20:45:59.071Z,6.90
2022-10-04T20:48:30.076Z,6.88
2022-10-04T20:51:08.979Z,6.85
2022-10-04T20:53:46.790Z,6.82
2022-10-04T20:56:44.096Z,6.81
2022-10-04T20:59:16.905Z,6.79
2022-10-04T21:02:04.279Z,6.78
2022-10-04T21:04:50.260Z,6.78
2022-10-04T21:07:24.508Z,6.76
2022-10-04T21:09:54.683Z,6.75
2022-10-04T21:12:40.656Z,6.70
2022-10-04T21:15:19.483Z,6.66
2022-10-04T21:18:07.792Z,6.61
2022-10-04T21:20:44.313Z,6.55
2022-10-04T21:23:23.633Z,6.51
2022-10-04T21:25:51.528Z,6.48
2022-10-04T21:28:37.740Z,6.46
2022-10-04T21:31:05.867Z,6.44
2022-10-04T21:33:34.515Z,6.43
2022-10-04T21:36:03.983Z,6.42
2022-10-04T21:38:32.349Z,6.42
2022-10-04T21:41:00.111Z,6.42
2022-10-04T21:43:28.746Z,6.43
2022-10-04T21:45:56.611Z,6.41
2022-10-04T21:48:25.744Z,6.40
2022-10-04T21:50:54.824Z,6.38
2022-10-04T21:53:22.655Z,6.34
2022-10-04T21:55:50.549Z,6.29
2022-10-04T21:58:18.447Z,6.24
2022-10-04T22:00:46.353Z,6.19
2022-10-04T22:03:14.217Z,6.15
2022-10-04T22:05:42.003Z,6.12
2022-10-04T22:08:09.836Z,6.11
2022-10-04T22:10:37.761Z,6.11
2022-10-04T22:13:06.086Z,6.10
2022-10-04T22:15:33.861Z,6.09
2022-10-04T22:18:02.013Z,6.08
2022-10-04T22:20:31.273Z,6.07
2022-10-04T22:22:59.897Z,6.05
2022-10-04T22:25:28.257Z,6.02
2022-10-04T22:27:56.201Z,5.99
2022-10-04T22:30:31.207Z,5.96
2022-10-04T22:33:01.539Z,5.93
2022-10-04T22:35:31.906Z,5.93
2022-10-04T22:38:00.036Z,5.93
2022-10-04T22:40:29.258Z,5.93
2022-10-04T22:43:00.907Z,5.92
2022-10-04T22:45:33.710Z,5.91
2022-10-04T22:48:07.850Z,5.90
2022-10-04T22:50:37.629Z,5.88
2022-10-04T22:53:16.251Z,5.87
2022-10-04T22:55:44.048Z,5.86
2022-10-04T22:58:14.332Z,5.84
2022-10-04T23:00:44.790Z,5.80
2022-10-04T23:03:31.556Z,5.77
2022-10-04T23:06:01.302Z,5.72
2022-10-04T23:08:30.247Z,5.68
2022-10-04T23:11:00.769Z,5.64
2022-10-04T23:13:28.989Z,5.61
2022-10-04T23:16:00.653Z,5.59
2022-10-04T23:18:30.179Z,5.58
2022-10-04T23:21:01.886Z,5.57
2022-10-04T23:23:31.447Z,5.58
2022-10-04T23:25:59.266Z,5.58
2022-10-04T23:28:27.174Z,5.59
2022-10-04T23:31:06.281Z,5.60
2022-10-04T23:33:34.552Z,5.58
2022-10-04T23:36:02.384Z,5.56
2022-10-04T23:38:31.572Z,5.53
2022-10-04T23:40:59.876Z,5.49
2022-10-04T23:43:31.855Z,5.44
2022-10-04T23:45:59.793Z,5.41
2022-10-04T23:48:32.116Z,5.39
2022-10-04T23:51:01.041Z,5.38
2022-10-04T23:53:31.893Z,5.38
2022-10-04T23:56:05.153Z,5.37
2022-10-04T23:58:40.077Z,5.36
